sensor_id;sensor_type;location;lat;lon;timestamp;P1;durP1;ratioP1;P2;durP2;ratioP2
35961;SDS011;22044;48.298;10.008;2022-10-22T00:00:36;14.60;;;11.47;;
35961;SDS011;22044;48.298;10.008;2022-10-22T00:03:22;11.67;;;10.20;;
35961;SDS011;22044;48.298;10.008;2022-10-22T00:06:07;11.27;;;9.67;;
35961;SDS011;22044;48.298;10.008;2022-10-22T00:08:53;10.80;;;9.10;;
35961;SDS011;22044;48.298;10.008;2022-10-22T00:11:39;10.03;;;7.90;;
35961;SDS011;22044;48.298;10.008;2022-10-22T00:14:25;9.60;;;7.90;;
35961;SDS011;22044;48.298;10.008;2022-10-22T00:17:12;9.33;;;8.37;;
35961;SDS011;22044;48.298;10.008;2022-10-22T00:19:57;8.33;;;7.23;;
35961;SDS011;22044;48.298;10.008;2022-10-22T00:22:43;8.03;;;6.33;;
35961;SDS011;22044;48.298;10.008;2022-10-22T00:25:29;6.97;;;6.27;;
35961;SDS011;22044;48.298;10.008;2022-10-22T00:28:15;9.87;;;6.27;;
35961;SDS011;22044;48.298;10.008;2022-10-22T00:31:01;7.97;;;6.20;;
35961;SDS011;22044;48.298;10.008;2022-10-22T00:33:48;8.63;;;5.33;;
35961;SDS011;22044;48.298;10.008;2022-10-22T00:36:33;6.00;;;4.10;;
35961;SDS011;22044;48.298;10.008;2022-10-22T00:39:20;5.53;;;3.63;;
35961;SDS011;22044;48.298;10.008;2022-10-22T00:42:09;3.17;;;2.80;;
35961;SDS011;22044;48.298;10.008;2022-10-22T00:44:59;3.77;;;1.90;;
35961;SDS011;22044;48.298;10.008;2022-10-22T00:47:49;3.37;;;2.00;;
35961;SDS011;22044;48.298;10.008;2022-10-22T00:50:41;2.70;;;1.53;;
35961;SDS011;22044;48.298;10.008;2022-10-22T00:53:30;2.43;;;1.70;;
35961;SDS011;22044;48.298;10.008;2022-10-22T00:56:18;2.03;;;1.30;;
35961;SDS011;22044;48.298;10.008;2022-10-22T00:59:04;2.67;;;1.80;;
35961;SDS011;22044;48.298;10.008;2022-10-22T01:01:50;3.27;;;1.57;;
35961;SDS011;22044;48.298;10.008;2022-10-22T01:04:36;4.37;;;1.80;;
35961;SDS011;22044;48.298;10.008;2022-10-22T01:07:23;3.87;;;1.63;;
35961;SDS011;22044;48.298;10.008;2022-10-22T01:10:13;1.70;;;1.57;;
35961;SDS011;22044;48.298;10.008;2022-10-22T01:13:15;1.97;;;1.77;;
35961;SDS011;22044;48.298;10.008;2022-10-22T01:16:10;3.67;;;2.30;;
35961;SDS011;22044;48.298;10.008;2022-10-22T01:19:04;3.40;;;2.23;;
35961;SDS011;22044;48.298;10.008;2022-10-22T01:22:06;4.40;;;1.50;;
35961;SDS011;22044;48.298;10.008;2022-10-22T01:24:58;2.13;;;1.53;;
35961;SDS011;22044;48.298;10.008;2022-10-22T01:27:54;3.77;;;1.40;;
35961;SDS011;22044;48.298;10.008;2022-10-22T01:30:51;2.67;;;1.40;;
35961;SDS011;22044;48.298;10.008;2022-10-22T01:33:40;1.87;;;1.33;;
35961;SDS011;22044;48.298;10.008;2022-10-22T01:36:28;2.67;;;1.53;;
35961;SDS011;22044;48.298;10.008;2022-10-22T01:39:15;2.77;;;1.60;;
35961;SDS011;22044;48.298;10.008;2022-10-22T01:42:01;1.83;;;1.37;;
35961;SDS011;22044;48.298;10.008;2022-10-22T01:44:47;4.40;;;1.67;;
35961;SDS011;22044;48.298;10.008;2022-10-22T01:47:38;1.40;;;1.20;;
35961;SDS011;22044;48.298;10.008;2022-10-22T01:50:32;3.10;;;1.60;;
35961;SDS011;22044;48.298;10.008;2022-10-22T01:53:35;1.77;;;1.53;;
35961;SDS011;22044;48.298;10.008;2022-10-22T01:56:29;2.00;;;1.50;;
35961;SDS011;22044;48.298;10.008;2022-10-22T01:59:32;5.83;;;1.83;;
35961;SDS011;22044;48.298;10.008;2022-10-22T02:02:28;3.07;;;1.27;;
35961;SDS011;22044;48.298;10.008;2022-10-22T02:05:23;4.80;;;1.70;;
35961;SDS011;22044;48.298;10.008;2022-10-22T02:08:12;2.83;;;1.30;;
35961;SDS011;22044;48.298;10.008;2022-10-22T02:11:02;3.87;;;1.60;;
35961;SDS011;22044;48.298;10.008;2022-10-22T02:13:49;3.07;;;1.30;;
35961;SDS011;22044;48.298;10.008;2022-10-22T02:16:39;1.80;;;1.10;;
35961;SDS011;22044;48.298;10.008;2022-10-22T02:19:29;3.57;;;1.20;;
35961;SDS011;22044;48.298;10.008;2022-10-22T02:22:23;1.30;;;1.20;;
35961;SDS011;22044;48.298;10.008;2022-10-22T02:25:11;6.77;;;1.20;;
35961;SDS011;22044;48.298;10.008;2022-10-22T02:27:58;2.93;;;1.10;;
35961;SDS011;22044;48.298;10.008;2022-10-22T02:30:52;2.00;;;1.43;;
35961;SDS011;22044;48.298;10.008;2022-10-22T02:33:41;3.03;;;1.20;;
35961;SDS011;22044;48.298;10.008;2022-10-22T02:36:29;2.03;;;1.20;;
35961;SDS011;22044;48.298;10.008;2022-10-22T02:39:17;2.83;;;1.30;;
35961;SDS011;22044;48.298;10.008;2022-10-22T02:42:04;2.07;;;1.10;;
35961;SDS011;22044;48.298;10.008;2022-10-22T02:44:50;1.17;;;1.03;;
35961;SDS011;22044;48.298;10.008;2022-10-22T02:47:35;5.07;;;1.20;;
35961;SDS011;22044;48.298;10.008;2022-10-22T02:50:21;2.13;;;1.33;;
35961;SDS011;22044;48.298;10.008;2022-10-22T02:53:06;4.10;;;1.57;;
35961;SDS011;22044;48.298;10.008;2022-10-22T02:55:53;5.23;;;1.40;;
35961;SDS011;22044;48.298;10.008;2022-10-22T02:58:39;4.30;;;1.30;;
35961;SDS011;22044;48.298;10.008;2022-10-22T03:01:24;3.33;;;1.10;;
35961;SDS011;22044;48.298;10.008;2022-10-22T03:04:10;1.53;;;1.13;;
35961;SDS011;22044;48.298;10.008;2022-10-22T03:06:56;1.33;;;1.20;;
35961;SDS011;22044;48.298;10.008;2022-10-22T03:09:41;1.67;;;1.17;;
35961;SDS011;22044;48.298;10.008;2022-10-22T03:12:28;3.57;;;1.30;;
35961;SDS011;22044;48.298;10.008;2022-10-22T03:15:14;1.67;;;1.17;;
35961;SDS011;22044;48.298;10.008;2022-10-22T03:17:59;1.63;;;1.20;;
35961;SDS011;22044;48.298;10.008;2022-10-22T03:20:45;3.97;;;1.10;;
35961;SDS011;22044;48.298;10.008;2022-10-22T03:23:31;2.43;;;1.17;;
35961;SDS011;22044;48.298;10.008;2022-10-22T03:26:17;2.70;;;1.30;;
35961;SDS011;22044;48.298;10.008;2022-10-22T03:29:04;1.40;;;1.00;;
35961;SDS011;22044;48.298;10.008;2022-10-22T03:31:50;0.80;;;0.80;;
35961;SDS011;22044;48.298;10.008;2022-10-22T03:34:36;2.43;;;0.83;;
35961;SDS011;22044;48.298;10.008;2022-10-22T03:37:22;1.33;;;1.17;;
35961;SDS011;22044;48.298;10.008;2022-10-22T03:40:09;1.10;;;1.00;;
35961;SDS011;22044;48.298;10.008;2022-10-22T03:42:55;2.43;;;1.00;;
35961;SDS011;22044;48.298;10.008;2022-10-22T03:45:43;1.93;;;1.10;;
35961;SDS011;22044;48.298;10.008;2022-10-22T03:48:29;3.03;;;1.00;;
35961;SDS011;22044;48.298;10.008;2022-10-22T03:51:14;2.03;;;1.10;;
35961;SDS011;22044;48.298;10.008;2022-10-22T03:54:00;1.00;;;0.90;;
35961;SDS011;22044;48.298;10.008;2022-10-22T03:56:46;1.20;;;1.10;;
35961;SDS011;22044;48.298;10.008;2022-10-22T03:59:33;2.93;;;1.13;;
35961;SDS011;22044;48.298;10.008;2022-10-22T04:02:21;4.87;;;1.40;;
35961;SDS011;22044;48.298;10.008;2022-10-22T04:05:07;5.13;;;1.50;;
35961;SDS011;22044;48.298;10.008;2022-10-22T04:07:52;1.77;;;1.20;;
35961;SDS011;22044;48.298;10.008;2022-10-22T04:10:38;1.43;;;1.10;;
35961;SDS011;22044;48.298;10.008;2022-10-22T04:13:24;1.20;;;1.10;;
35961;SDS011;22044;48.298;10.008;2022-10-22T04:16:10;1.63;;;1.33;;
35961;SDS011;22044;48.298;10.008;2022-10-22T04:18:59;2.37;;;1.13;;
35961;SDS011;22044;48.298;10.008;2022-10-22T04:21:45;2.13;;;1.67;;
35961;SDS011;22044;48.298;10.008;2022-10-22T04:24:31;2.73;;;1.47;;
35961;SDS011;22044;48.298;10.008;2022-10-22T04:27:16;2.53;;;1.50;;
35961;SDS011;22044;48.298;10.008;2022-10-22T04:30:02;3.73;;;1.50;;
35961;SDS011;22044;48.298;10.008;2022-10-22T04:32:49;2.83;;;1.43;;
35961;SDS011;22044;48.298;10.008;2022-10-22T04:35:38;5.07;;;1.30;;
35961;SDS011;22044;48.298;10.008;2022-10-22T04:38:23;2.80;;;1.90;;
35961;SDS011;22044;48.298;10.008;2022-10-22T04:41:10;1.57;;;1.43;;
35961;SDS011;22044;48.298;10.008;2022-10-22T04:43:57;1.60;;;1.30;;
35961;SDS011;22044;48.298;10.008;2022-10-22T04:46:43;2.33;;;1.33;;
35961;SDS011;22044;48.298;10.008;2022-10-22T04:49:29;3.27;;;1.43;;
35961;SDS011;22044;48.298;10.008;2022-10-22T04:52:16;1.20;;;1.10;;
35961;SDS011;22044;48.298;10.008;2022-10-22T04:55:01;1.37;;;1.27;;
35961;SDS011;22044;48.298;10.008;2022-10-22T04:57:47;1.87;;;1.20;;
35961;SDS011;22044;48.298;10.008;2022-10-22T05:00:33;2.47;;;1.53;;
35961;SDS011;22044;48.298;10.008;2022-10-22T05:03:18;2.33;;;1.10;;
35961;SDS011;22044;48.298;10.008;2022-10-22T05:06:04;2.70;;;1.07;;
35961;SDS011;22044;48.298;10.008;2022-10-22T05:08:52;7.60;;;1.40;;
35961;SDS011;22044;48.298;10.008;2022-10-22T05:11:40;5.37;;;1.10;;
35961;SDS011;22044;48.298;10.008;2022-10-22T05:14:28;1.20;;;1.10;;
35961;SDS011;22044;48.298;10.008;2022-10-22T05:17:14;3.53;;;1.20;;
35961;SDS011;22044;48.298;10.008;2022-10-22T05:19:59;1.10;;;0.90;;
35961;SDS011;22044;48.298;10.008;2022-10-22T05:22:45;4.67;;;1.30;;
35961;SDS011;22044;48.298;10.008;2022-10-22T05:25:35;1.40;;;0.97;;
35961;SDS011;22044;48.298;10.008;2022-10-22T05:28:21;1.90;;;1.20;;
35961;SDS011;22044;48.298;10.008;2022-10-22T05:31:07;1.20;;;0.97;;
35961;SDS011;22044;48.298;10.008;2022-10-22T05:33:57;0.90;;;0.80;;
35961;SDS011;22044;48.298;10.008;2022-10-22T05:36:43;2.50;;;1.03;;
35961;SDS011;22044;48.298;10.008;2022-10-22T05:39:29;0.70;;;0.70;;
35961;SDS011;22044;48.298;10.008;2022-10-22T05:42:16;2.27;;;0.83;;
35961;SDS011;22044;48.298;10.008;2022-10-22T05:45:01;1.83;;;1.00;;
35961;SDS011;22044;48.298;10.008;2022-10-22T05:47:46;2.83;;;0.80;;
35961;SDS011;22044;48.298;10.008;2022-10-22T05:50:33;0.70;;;0.70;;
35961;SDS011;22044;48.298;10.008;2022-10-22T05:53:19;1.33;;;0.90;;
35961;SDS011;22044;48.298;10.008;2022-10-22T05:56:05;8.23;;;3.50;;
35961;SDS011;22044;48.298;10.008;2022-10-22T05:58:54;1.43;;;1.20;;
35961;SDS011;22044;48.298;10.008;2022-10-22T06:01:41;0.70;;;0.70;;
35961;SDS011;22044;48.298;10.008;2022-10-22T06:04:27;4.63;;;1.10;;
35961;SDS011;22044;48.298;10.008;2022-10-22T06:07:12;5.27;;;1.10;;
35961;SDS011;22044;48.298;10.008;2022-10-22T06:09:59;2.20;;;1.17;;
35961;SDS011;22044;48.298;10.008;2022-10-22T06:12:45;0.90;;;0.90;;
35961;SDS011;22044;48.298;10.008;2022-10-22T06:15:32;1.00;;;0.80;;
35961;SDS011;22044;48.298;10.008;2022-10-22T06:18:18;0.73;;;0.73;;
35961;SDS011;22044;48.298;10.008;2022-10-22T06:21:04;2.50;;;0.90;;
35961;SDS011;22044;48.298;10.008;2022-10-22T06:23:51;2.70;;;1.07;;
35961;SDS011;22044;48.298;10.008;2022-10-22T06:26:36;1.17;;;0.87;;
35961;SDS011;22044;48.298;10.008;2022-10-22T06:29:22;2.37;;;1.00;;
35961;SDS011;22044;48.298;10.008;2022-10-22T06:32:09;2.00;;;1.30;;
35961;SDS011;22044;48.298;10.008;2022-10-22T06:34:54;1.47;;;1.10;;
35961;SDS011;22044;48.298;10.008;2022-10-22T06:37:40;1.30;;;1.20;;
35961;SDS011;22044;48.298;10.008;2022-10-22T06:40:26;2.30;;;1.03;;
35961;SDS011;22044;48.298;10.008;2022-10-22T06:43:12;1.10;;;1.00;;
35961;SDS011;22044;48.298;10.008;2022-10-22T06:45:58;1.40;;;1.10;;
35961;SDS011;22044;48.298;10.008;2022-10-22T06:48:48;1.27;;;0.90;;
35961;SDS011;22044;48.298;10.008;2022-10-22T06:51:35;4.03;;;1.10;;
35961;SDS011;22044;48.298;10.008;2022-10-22T06:54:21;1.90;;;0.90;;
35961;SDS011;22044;48.298;10.008;2022-10-22T06:57:07;0.90;;;0.80;;
35961;SDS011;22044;48.298;10.008;2022-10-22T06:59:53;1.37;;;0.90;;
35961;SDS011;22044;48.298;10.008;2022-10-22T07:02:38;1.23;;;0.90;;
35961;SDS011;22044;48.298;10.008;2022-10-22T07:05:25;0.70;;;0.70;;
35961;SDS011;22044;48.298;10.008;2022-10-22T07:08:11;2.67;;;1.07;;
35961;SDS011;22044;48.298;10.008;2022-10-22T07:11:03;0.70;;;0.70;;
35961;SDS011;22044;48.298;10.008;2022-10-22T07:13:50;0.70;;;0.70;;
35961;SDS011;22044;48.298;10.008;2022-10-22T07:16:38;3.40;;;0.90;;
35961;SDS011;22044;48.298;10.008;2022-10-22T07:19:24;1.00;;;0.90;;
35961;SDS011;22044;48.298;10.008;2022-10-22T07:22:11;1.17;;;0.93;;
35961;SDS011;22044;48.298;10.008;2022-10-22T07:24:57;1.07;;;0.97;;
35961;SDS011;22044;48.298;10.008;2022-10-22T07:27:42;1.90;;;0.80;;
35961;SDS011;22044;48.298;10.008;2022-10-22T07:30:28;2.03;;;0.90;;
35961;SDS011;22044;48.298;10.008;2022-10-22T07:33:14;1.47;;;0.80;;
35961;SDS011;22044;48.298;10.008;2022-10-22T07:36:00;3.00;;;1.20;;
35961;SDS011;22044;48.298;10.008;2022-10-22T07:38:53;4.87;;;1.00;;
35961;SDS011;22044;48.298;10.008;2022-10-22T07:41:40;2.37;;;1.10;;
35961;SDS011;22044;48.298;10.008;2022-10-22T07:44:26;2.07;;;1.07;;
35961;SDS011;22044;48.298;10.008;2022-10-22T07:47:11;1.90;;;0.90;;
35961;SDS011;22044;48.298;10.008;2022-10-22T07:49:57;3.90;;;1.00;;
35961;SDS011;22044;48.298;10.008;2022-10-22T07:52:43;2.67;;;1.30;;
35961;SDS011;22044;48.298;10.008;2022-10-22T07:55:30;3.83;;;1.00;;
35961;SDS011;22044;48.298;10.008;2022-10-22T07:58:17;1.87;;;1.20;;
35961;SDS011;22044;48.298;10.008;2022-10-22T08:01:03;1.83;;;1.00;;
35961;SDS011;22044;48.298;10.008;2022-10-22T08:03:49;3.37;;;1.17;;
35961;SDS011;22044;48.298;10.008;2022-10-22T08:06:35;1.50;;;1.20;;
35961;SDS011;22044;48.298;10.008;2022-10-22T08:09:21;2.83;;;1.23;;
35961;SDS011;22044;48.298;10.008;2022-10-22T08:12:08;1.90;;;1.00;;
35961;SDS011;22044;48.298;10.008;2022-10-22T08:14:54;1.47;;;1.10;;
35961;SDS011;22044;48.298;10.008;2022-10-22T08:17:40;3.23;;;1.47;;
35961;SDS011;22044;48.298;10.008;2022-10-22T08:20:25;1.40;;;1.20;;
35961;SDS011;22044;48.298;10.008;2022-10-22T08:23:11;1.70;;;1.00;;
35961;SDS011;22044;48.298;10.008;2022-10-22T08:25:57;1.53;;;1.10;;
35961;SDS011;22044;48.298;10.008;2022-10-22T08:28:44;3.67;;;1.20;;
35961;SDS011;22044;48.298;10.008;2022-10-22T08:31:29;1.80;;;1.10;;
35961;SDS011;22044;48.298;10.008;2022-10-22T08:34:15;4.10;;;1.17;;
35961;SDS011;22044;48.298;10.008;2022-10-22T08:37:01;3.23;;;1.60;;
35961;SDS011;22044;48.298;10.008;2022-10-22T08:39:48;1.40;;;1.30;;
35961;SDS011;22044;48.298;10.008;2022-10-22T08:42:38;2.80;;;1.33;;
35961;SDS011;22044;48.298;10.008;2022-10-22T08:45:48;1.40;;;1.27;;
35961;SDS011;22044;48.298;10.008;2022-10-22T08:48:41;1.20;;;1.10;;
35961;SDS011;22044;48.298;10.008;2022-10-22T08:51:30;1.63;;;1.27;;
35961;SDS011;22044;48.298;10.008;2022-10-22T08:54:21;1.53;;;1.37;;
35961;SDS011;22044;48.298;10.008;2022-10-22T08:57:22;1.43;;;1.30;;
35961;SDS011;22044;48.298;10.008;2022-10-22T09:00:20;1.30;;;1.10;;
35961;SDS011;22044;48.298;10.008;2022-10-22T09:03:18;1.27;;;1.07;;
35961;SDS011;22044;48.298;10.008;2022-10-22T09:06:14;1.50;;;1.30;;
35961;SDS011;22044;48.298;10.008;2022-10-22T09:09:04;4.40;;;1.20;;
35961;SDS011;22044;48.298;10.008;2022-10-22T09:11:56;1.50;;;1.40;;
35961;SDS011;22044;48.298;10.008;2022-10-22T09:14:44;1.30;;;1.20;;
35961;SDS011;22044;48.298;10.008;2022-10-22T09:17:32;1.70;;;1.53;;
35961;SDS011;22044;48.298;10.008;2022-10-22T09:20:27;2.33;;;1.63;;
35961;SDS011;22044;48.298;10.008;2022-10-22T09:23:22;2.43;;;1.57;;
35961;SDS011;22044;48.298;10.008;2022-10-22T09:26:13;2.50;;;1.50;;
35961;SDS011;22044;48.298;10.008;2022-10-22T09:29:00;3.10;;;1.80;;
35961;SDS011;22044;48.298;10.008;2022-10-22T09:31:47;3.70;;;1.90;;
35961;SDS011;22044;48.298;10.008;2022-10-22T09:34:32;1.60;;;1.50;;
35961;SDS011;22044;48.298;10.008;2022-10-22T09:37:21;4.07;;;2.00;;
35961;SDS011;22044;48.298;10.008;2022-10-22T09:40:12;1.90;;;1.50;;
35961;SDS011;22044;48.298;10.008;2022-10-22T09:42:58;1.43;;;1.30;;
35961;SDS011;22044;48.298;10.008;2022-10-22T09:45:44;1.73;;;1.50;;
35961;SDS011;22044;48.298;10.008;2022-10-22T09:48:32;3.50;;;1.80;;
35961;SDS011;22044;48.298;10.008;2022-10-22T09:51:20;3.07;;;1.63;;
35961;SDS011;22044;48.298;10.008;2022-10-22T09:54:14;3.37;;;1.50;;
35961;SDS011;22044;48.298;10.008;2022-10-22T09:57:02;1.63;;;1.50;;
35961;SDS011;22044;48.298;10.008;2022-10-22T09:59:50;5.63;;;1.83;;
35961;SDS011;22044;48.298;10.008;2022-10-22T10:02:40;2.40;;;1.60;;
35961;SDS011;22044;48.298;10.008;2022-10-22T10:05:28;1.70;;;1.60;;
35961;SDS011;22044;48.298;10.008;2022-10-22T10:08:15;3.23;;;1.43;;
35961;SDS011;22044;48.298;10.008;2022-10-22T10:11:04;4.50;;;1.60;;
35961;SDS011;22044;48.298;10.008;2022-10-22T10:14:00;3.27;;;1.70;;
35961;SDS011;22044;48.298;10.008;2022-10-22T10:16:54;3.30;;;1.70;;
35961;SDS011;22044;48.298;10.008;2022-10-22T10:22:54;1.77;;;1.60;;
35961;SDS011;22044;48.298;10.008;2022-10-22T10:25:47;3.67;;;1.73;;
35961;SDS011;22044;48.298;10.008;2022-10-22T10:28:48;1.57;;;1.30;;
35961;SDS011;22044;48.298;10.008;2022-10-22T10:31:47;2.80;;;1.50;;
35961;SDS011;22044;48.298;10.008;2022-10-22T10:34:42;2.63;;;1.30;;
35961;SDS011;22044;48.298;10.008;2022-10-22T10:37:36;2.60;;;1.70;;
35961;SDS011;22044;48.298;10.008;2022-10-22T10:40:27;2.60;;;1.50;;
35961;SDS011;22044;48.298;10.008;2022-10-22T10:43:18;3.00;;;1.60;;
35961;SDS011;22044;48.298;10.008;2022-10-22T10:46:12;2.33;;;1.30;;
35961;SDS011;22044;48.298;10.008;2022-10-22T10:49:07;6.73;;;1.97;;
35961;SDS011;22044;48.298;10.008;2022-10-22T10:51:55;6.20;;;2.30;;
35961;SDS011;22044;48.298;10.008;2022-10-22T10:54:51;2.87;;;1.70;;
35961;SDS011;22044;48.298;10.008;2022-10-22T10:57:46;2.23;;;1.50;;
35961;SDS011;22044;48.298;10.008;2022-10-22T11:00:40;2.30;;;1.50;;
35961;SDS011;22044;48.298;10.008;2022-10-22T11:06:48;3.70;;;1.63;;
35961;SDS011;22044;48.298;10.008;2022-10-22T11:09:38;3.77;;;1.67;;
35961;SDS011;22044;48.298;10.008;2022-10-22T11:12:27;5.50;;;1.60;;
35961;SDS011;22044;48.298;10.008;2022-10-22T11:15:21;2.97;;;1.50;;
35961;SDS011;22044;48.298;10.008;2022-10-22T11:18:13;3.40;;;1.80;;
35961;SDS011;22044;48.298;10.008;2022-10-22T11:21:09;2.60;;;1.10;;
35961;SDS011;22044;48.298;10.008;2022-10-22T11:24:07;2.00;;;1.40;;
35961;SDS011;22044;48.298;10.008;2022-10-22T11:26:59;3.00;;;1.20;;
35961;SDS011;22044;48.298;10.008;2022-10-22T11:29:51;3.00;;;1.20;;
35961;SDS011;22044;48.298;10.008;2022-10-22T11:32:43;3.17;;;1.57;;
35961;SDS011;22044;48.298;10.008;2022-10-22T11:35:33;2.73;;;1.50;;
35961;SDS011;22044;48.298;10.008;2022-10-22T11:38:24;4.23;;;1.50;;
35961;SDS011;22044;48.298;10.008;2022-10-22T11:41:13;4.53;;;1.83;;
35961;SDS011;22044;48.298;10.008;2022-10-22T11:44:07;2.80;;;1.40;;
35961;SDS011;22044;48.298;10.008;2022-10-22T11:46:55;2.00;;;1.45;;
35961;SDS011;22044;48.298;10.008;2022-10-22T11:49:43;4.70;;;1.53;;
35961;SDS011;22044;48.298;10.008;2022-10-22T11:52:39;3.87;;;1.67;;
35961;SDS011;22044;48.298;10.008;2022-10-22T11:55:44;4.30;;;1.90;;
35961;SDS011;22044;48.298;10.008;2022-10-22T11:58:34;3.23;;;1.50;;
35961;SDS011;22044;48.298;10.008;2022-10-22T12:01:27;2.43;;;1.53;;
35961;SDS011;22044;48.298;10.008;2022-10-22T12:04:15;1.88;;;1.40;;
35961;SDS011;22044;48.298;10.008;2022-10-22T12:07:24;1.40;;;1.27;;
35961;SDS011;22044;48.298;10.008;2022-10-22T12:10:15;2.22;;;1.20;;
35961;SDS011;22044;48.298;10.008;2022-10-22T12:13:09;3.13;;;1.77;;
35961;SDS011;22044;48.298;10.008;2022-10-22T12:16:07;2.93;;;1.47;;
35961;SDS011;22044;48.298;10.008;2022-10-22T12:18:56;3.63;;;1.60;;
35961;SDS011;22044;48.298;10.008;2022-10-22T12:21:58;3.87;;;1.27;;
35961;SDS011;22044;48.298;10.008;2022-10-22T12:24:47;4.60;;;1.70;;
35961;SDS011;22044;48.298;10.008;2022-10-22T12:27:35;2.80;;;1.63;;
35961;SDS011;22044;48.298;10.008;2022-10-22T12:30:22;3.23;;;1.40;;
35961;SDS011;22044;48.298;10.008;2022-10-22T12:33:17;2.57;;;1.43;;
35961;SDS011;22044;48.298;10.008;2022-10-22T12:36:04;6.30;;;1.60;;
35961;SDS011;22044;48.298;10.008;2022-10-22T12:38:50;4.93;;;1.50;;
35961;SDS011;22044;48.298;10.008;2022-10-22T12:41:36;1.47;;;1.20;;
35961;SDS011;22044;48.298;10.008;2022-10-22T12:44:23;3.97;;;1.60;;
35961;SDS011;22044;48.298;10.008;2022-10-22T12:47:10;2.00;;;1.33;;
35961;SDS011;22044;48.298;10.008;2022-10-22T12:50:00;5.43;;;1.40;;
35961;SDS011;22044;48.298;10.008;2022-10-22T12:52:47;1.90;;;1.37;;
35961;SDS011;22044;48.298;10.008;2022-10-22T12:55:33;3.03;;;1.50;;
35961;SDS011;22044;48.298;10.008;2022-10-22T12:58:19;3.83;;;1.33;;
35961;SDS011;22044;48.298;10.008;2022-10-22T13:01:09;2.65;;;1.55;;
35961;SDS011;22044;48.298;10.008;2022-10-22T13:04:12;3.20;;;1.30;;
35961;SDS011;22044;48.298;10.008;2022-10-22T13:07:14;2.83;;;1.50;;
35961;SDS011;22044;48.298;10.008;2022-10-22T13:10:02;1.77;;;1.27;;
35961;SDS011;22044;48.298;10.008;2022-10-22T13:13:01;3.87;;;2.23;;
35961;SDS011;22044;48.298;10.008;2022-10-22T13:15:49;2.00;;;1.30;;
35961;SDS011;22044;48.298;10.008;2022-10-22T13:18:35;2.50;;;1.40;;
35961;SDS011;22044;48.298;10.008;2022-10-22T13:21:25;2.43;;;1.20;;
35961;SDS011;22044;48.298;10.008;2022-10-22T13:24:19;3.23;;;1.47;;
35961;SDS011;22044;48.298;10.008;2022-10-22T13:27:06;1.30;;;1.17;;
35961;SDS011;22044;48.298;10.008;2022-10-22T13:29:53;2.17;;;1.30;;
35961;SDS011;22044;48.298;10.008;2022-10-22T13:32:39;2.67;;;1.58;;
35961;SDS011;22044;48.298;10.008;2022-10-22T13:35:26;3.80;;;1.47;;
35961;SDS011;22044;48.298;10.008;2022-10-22T13:38:15;2.17;;;1.50;;
35961;SDS011;22044;48.298;10.008;2022-10-22T13:41:04;3.93;;;1.40;;
35961;SDS011;22044;48.298;10.008;2022-10-22T13:44:02;2.80;;;1.27;;
35961;SDS011;22044;48.298;10.008;2022-10-22T13:46:48;4.43;;;1.33;;
35961;SDS011;22044;48.298;10.008;2022-10-22T13:49:33;1.87;;;1.30;;
35961;SDS011;22044;48.298;10.008;2022-10-22T13:52:22;3.45;;;1.45;;
35961;SDS011;22044;48.298;10.008;2022-10-22T13:55:14;2.67;;;1.45;;
35961;SDS011;22044;48.298;10.008;2022-10-22T13:58:05;5.07;;;1.60;;
35961;SDS011;22044;48.298;10.008;2022-10-22T14:00:54;5.93;;;1.40;;
35961;SDS011;22044;48.298;10.008;2022-10-22T14:03:42;6.07;;;1.60;;
35961;SDS011;22044;48.298;10.008;2022-10-22T14:06:29;2.20;;;1.23;;
35961;SDS011;22044;48.298;10.008;2022-10-22T14:09:15;2.63;;;1.30;;
35961;SDS011;22044;48.298;10.008;2022-10-22T14:12:00;2.33;;;1.30;;
35961;SDS011;22044;48.298;10.008;2022-10-22T14:14:48;2.10;;;1.23;;
35961;SDS011;22044;48.298;10.008;2022-10-22T14:17:34;2.93;;;1.17;;
35961;SDS011;22044;48.298;10.008;2022-10-22T14:20:21;2.20;;;1.25;;
35961;SDS011;22044;48.298;10.008;2022-10-22T14:23:10;5.03;;;1.53;;
35961;SDS011;22044;48.298;10.008;2022-10-22T14:26:00;3.07;;;1.37;;
35961;SDS011;22044;48.298;10.008;2022-10-22T14:28:46;1.70;;;1.10;;
35961;SDS011;22044;48.298;10.008;2022-10-22T14:31:33;2.53;;;1.30;;
35961;SDS011;22044;48.298;10.008;2022-10-22T14:34:20;6.32;;;1.48;;
35961;SDS011;22044;48.298;10.008;2022-10-22T14:37:08;3.47;;;1.70;;
35961;SDS011;22044;48.298;10.008;2022-10-22T14:40:00;4.33;;;1.53;;
35961;SDS011;22044;48.298;10.008;2022-10-22T14:42:46;4.40;;;1.50;;
35961;SDS011;22044;48.298;10.008;2022-10-22T14:45:33;1.55;;;1.13;;
35961;SDS011;22044;48.298;10.008;2022-10-22T14:48:20;2.72;;;1.42;;
35961;SDS011;22044;48.298;10.008;2022-10-22T14:51:05;3.37;;;1.40;;
35961;SDS011;22044;48.298;10.008;2022-10-22T14:53:51;2.90;;;1.53;;
35961;SDS011;22044;48.298;10.008;2022-10-22T14:56:37;3.17;;;1.52;;
35961;SDS011;22044;48.298;10.008;2022-10-22T14:59:23;2.90;;;1.40;;
35961;SDS011;22044;48.298;10.008;2022-10-22T15:02:10;3.28;;;1.38;;
35961;SDS011;22044;48.298;10.008;2022-10-22T15:04:58;3.07;;;1.27;;
35961;SDS011;22044;48.298;10.008;2022-10-22T15:07:44;3.43;;;1.50;;
35961;SDS011;22044;48.298;10.008;2022-10-22T15:10:29;3.50;;;1.43;;
35961;SDS011;22044;48.298;10.008;2022-10-22T15:13:15;4.23;;;1.40;;
35961;SDS011;22044;48.298;10.008;2022-10-22T15:16:01;3.43;;;1.50;;
35961;SDS011;22044;48.298;10.008;2022-10-22T15:18:50;3.10;;;1.10;;
35961;SDS011;22044;48.298;10.008;2022-10-22T15:21:38;2.40;;;1.60;;
35961;SDS011;22044;48.298;10.008;2022-10-22T15:24:24;2.47;;;1.40;;
35961;SDS011;22044;48.298;10.008;2022-10-22T15:27:09;2.67;;;1.57;;
35961;SDS011;22044;48.298;10.008;2022-10-22T15:29:56;2.53;;;1.50;;
35961;SDS011;22044;48.298;10.008;2022-10-22T15:32:42;4.20;;;1.70;;
35961;SDS011;22044;48.298;10.008;2022-10-22T15:35:28;2.77;;;1.30;;
35961;SDS011;22044;48.298;10.008;2022-10-22T15:38:15;1.53;;;1.23;;
35961;SDS011;22044;48.298;10.008;2022-10-22T15:41:00;3.95;;;1.50;;
35961;SDS011;22044;48.298;10.008;2022-10-22T15:43:46;2.43;;;1.40;;
35961;SDS011;22044;48.298;10.008;2022-10-22T15:46:32;2.60;;;1.40;;
35961;SDS011;22044;48.298;10.008;2022-10-22T15:49:18;3.73;;;1.50;;
35961;SDS011;22044;48.298;10.008;2022-10-22T15:52:03;6.03;;;1.67;;
35961;SDS011;22044;48.298;10.008;2022-10-22T15:54:51;3.57;;;1.57;;
35961;SDS011;22044;48.298;10.008;2022-10-22T15:57:37;4.70;;;1.90;;
35961;SDS011;22044;48.298;10.008;2022-10-22T16:00:22;2.80;;;1.30;;
35961;SDS011;22044;48.298;10.008;2022-10-22T16:03:08;3.90;;;1.50;;
35961;SDS011;22044;48.298;10.008;2022-10-22T16:05:53;4.87;;;1.60;;
35961;SDS011;22044;48.298;10.008;2022-10-22T16:08:40;3.17;;;1.70;;
35961;SDS011;22044;48.298;10.008;2022-10-22T16:11:27;3.80;;;1.57;;
35961;SDS011;22044;48.298;10.008;2022-10-22T16:14:13;11.73;;;2.00;;
35961;SDS011;22044;48.298;10.008;2022-10-22T16:17:00;4.83;;;1.60;;
35961;SDS011;22044;48.298;10.008;2022-10-22T16:19:46;8.05;;;1.80;;
35961;SDS011;22044;48.298;10.008;2022-10-22T16:22:31;2.13;;;1.43;;
35961;SDS011;22044;48.298;10.008;2022-10-22T16:25:17;3.87;;;1.40;;
35961;SDS011;22044;48.298;10.008;2022-10-22T16:28:04;5.13;;;1.60;;
35961;SDS011;22044;48.298;10.008;2022-10-22T16:30:50;5.83;;;1.70;;
35961;SDS011;22044;48.298;10.008;2022-10-22T16:33:36;3.80;;;1.90;;
35961;SDS011;22044;48.298;10.008;2022-10-22T16:36:22;4.70;;;1.77;;
35961;SDS011;22044;48.298;10.008;2022-10-22T16:39:08;4.67;;;1.80;;
35961;SDS011;22044;48.298;10.008;2022-10-22T16:41:53;3.73;;;2.40;;
35961;SDS011;22044;48.298;10.008;2022-10-22T16:44:40;4.33;;;1.50;;